Time;durP1;ratioP1;P1;durP2;ratioP2;P2;SDS_P1;SDS_P2;PMS_P1;PMS_P2;Temp;Humidity;BMP_temperature;BMP_pressure;BME280_temperature;BME280_humidity;BME280_pressure;Samples;Min_cycle;Max_cycle;Signal;HPM_P1;HPM_P2
2022/11/22 00:00:43;;;;;;;8.07;3.85;;;11.10;99.90;;;;;;5053634;28;20028;-72
2022/11/22 00:03:11;;;;;;;4.88;4.18;;;11.10;99.90;;;;;;5068801;28;20356;-73
2022/11/22 00:05:38;;;;;;;5.70;4.05;;;11.30;99.90;;;;;;5039538;28;20143;-73
2022/11/22 00:08:06;;;;;;;5.35;3.28;;;11.30;99.90;;;;;;5027314;28;20114;-72
2022/11/22 00:10:34;;;;;;;6.25;3.92;;;11.30;99.90;;;;;;5054747;28;20040;-72
2022/11/22 00:13:02;;;;;;;8.80;5.47;;;11.30;99.90;;;;;;5053647;28;20131;-72
2022/11/22 00:15:29;;;;;;;5.35;3.15;;;11.30;99.90;;;;;;5052324;28;20135;-72
2022/11/22 00:17:57;;;;;;;6.05;3.53;;;11.20;99.90;;;;;;5038360;28;20134;-73
2022/11/22 00:20:24;;;;;;;5.18;4.15;;;11.30;99.90;;;;;;5071552;28;20048;-73
2022/11/22 00:22:52;;;;;;;6.90;3.08;;;11.40;99.90;;;;;;5067484;28;20557;-73
2022/11/22 00:25:19;;;;;;;5.65;3.00;;;11.40;99.90;;;;;;5082485;28;20075;-73
2022/11/22 00:27:47;;;;;;;12.45;3.45;;;11.50;99.90;;;;;;5048691;28;20048;-72
2022/11/22 00:30:15;;;;;;;4.18;2.50;;;11.50;99.90;;;;;;5083933;28;20463;-72
2022/11/22 00:32:42;;;;;;;5.18;2.38;;;11.50;99.90;;;;;;5035007;28;20403;-73
2022/11/22 00:35:13;;;;;;;5.25;2.50;;;11.50;99.90;;;;;;5069100;28;20154;-72
2022/11/22 00:37:40;;;;;;;5.22;2.92;;;11.40;99.90;;;;;;5062212;28;20131;-73
2022/11/22 00:40:09;;;;;;;5.35;2.85;;;11.40;99.90;;;;;;5068445;28;20048;-72
2022/11/22 00:42:36;;;;;;;5.32;3.08;;;11.40;99.90;;;;;;5070077;28;20048;-73
2022/11/22 00:45:04;;;;;;;3.70;2.63;;;11.30;99.90;;;;;;5071699;28;20055;-72
2022/11/22 00:47:31;;;;;;;5.88;2.28;;;11.30;99.90;;;;;;5054809;28;20044;-72
2022/11/22 00:49:59;;;;;;;3.45;2.55;;;11.30;99.90;;;;;;5032585;28;20071;-72
2022/11/22 00:52:26;;;;;;;5.03;2.40;;;11.20;99.90;;;;;;5042463;28;20469;-72
2022/11/22 00:54:54;;;;;;;3.15;2.00;;;11.30;99.90;;;;;;5049261;28;20555;-72
2022/11/22 00:57:22;;;;;;;3.75;1.80;;;11.30;99.90;;;;;;5087588;28;20040;-73
2022/11/22 00:59:50;;;;;;;4.45;2.20;;;11.40;99.90;;;;;;5033526;28;20063;-73
2022/11/22 01:02:17;;;;;;;3.13;2.05;;;11.40;99.90;;;;;;5060974;28;20286;-72
2022/11/22 01:04:44;;;;;;;2.85;2.17;;;11.50;99.90;;;;;;5070301;28;20086;-72
2022/11/22 01:07:12;;;;;;;4.28;1.92;;;11.50;99.90;;;;;;5065963;28;20513;-72
2022/11/22 01:09:40;;;;;;;3.90;2.25;;;11.50;99.90;;;;;;5077704;28;20070;-72
2022/11/22 01:12:07;;;;;;;3.85;2.10;;;11.50;99.90;;;;;;5037793;28;20052;-72
2022/11/22 01:14:35;;;;;;;5.70;2.20;;;11.50;99.90;;;;;;5064225;28;20047;-72
2022/11/22 01:17:03;;;;;;;3.47;2.00;;;11.60;99.90;;;;;;5046703;28;20043;-73
2022/11/22 01:19:30;;;;;;;3.75;1.83;;;11.60;99.90;;;;;;5069619;28;20051;-72
2022/11/22 01:21:58;;;;;;;5.53;1.73;;;11.70;99.90;;;;;;5062699;28;20469;-72
2022/11/22 01:24:26;;;;;;;2.60;1.80;;;11.80;99.90;;;;;;5049484;28;20056;-72
2022/11/22 01:26:54;;;;;;;2.83;1.60;;;11.70;99.90;;;;;;5066162;28;20036;-72
2022/11/22 01:29:22;;;;;;;3.05;1.65;;;11.80;99.90;;;;;;5053800;28;20048;-72
2022/11/22 01:31:49;;;;;;;5.72;1.75;;;11.80;99.90;;;;;;5053440;28;20048;-72
2022/11/22 01:34:17;;;;;;;3.28;1.95;;;12.00;99.90;;;;;;5074802;28;20056;-72
2022/11/22 01:36:44;;;;;;;3.80;1.48;;;12.00;99.90;;;;;;5059545;28;20040;-72
2022/11/22 01:39:12;;;;;;;3.22;1.50;;;12.10;99.90;;;;;;5069782;28;20060;-73
2022/11/22 01:41:39;;;;;;;2.75;1.08;;;12.10;99.90;;;;;;5053075;28;20086;-73
2022/11/22 01:44:27;;;;;;;1.33;1.10;;;12.10;99.90;;;;;;5037058;28;20137;-72
2022/11/22 01:46:56;;;;;;;3.47;1.42;;;12.10;99.90;;;;;;5064269;28;20395;-73
2022/11/22 01:49:32;;;;;;;2.40;1.17;;;12.20;99.90;;;;;;5068693;28;20120;-73
2022/11/22 01:52:06;;;;;;;3.88;1.58;;;12.30;99.90;;;;;;5052760;28;20392;-73
2022/11/22 01:54:39;;;;;;;6.32;1.67;;;12.40;99.90;;;;;;5036756;28;20516;-72
2022/11/22 01:57:11;;;;;;;3.10;1.05;;;12.40;99.90;;;;;;5058782;28;20532;-72
2022/11/22 01:59:45;;;;;;;2.47;1.30;;;12.40;99.90;;;;;;5042772;28;20056;-72
2022/11/22 02:02:13;;;;;;;3.20;1.55;;;12.50;99.90;;;;;;5068359;28;20052;-72
2022/11/22 02:04:42;;;;;;;1.35;1.10;;;12.50;99.90;;;;;;5068227;28;20185;-73
2022/11/22 02:07:34;;;;;;;2.30;1.65;;;12.50;99.90;;;;;;5053420;28;20051;-72
2022/11/22 02:10:01;;;;;;;2.25;1.08;;;12.50;99.90;;;;;;5077175;28;20040;-73
2022/11/22 02:12:30;;;;;;;1.50;1.20;;;12.60;99.90;;;;;;5047766;28;20067;-74
2022/11/22 02:14:58;;;;;;;4.75;1.27;;;12.60;99.90;;;;;;5075830;28;20047;-72
2022/11/22 02:17:26;;;;;;;3.90;1.92;;;12.60;99.90;;;;;;5054632;28;20040;-72
2022/11/22 02:19:54;;;;;;;6.22;1.25;;;12.70;99.90;;;;;;5068646;28;20052;-72
2022/11/22 02:22:21;;;;;;;4.47;2.38;;;12.70;99.90;;;;;;5068189;28;20058;-73
2022/11/22 02:25:26;;;;;;;2.28;1.40;;;12.70;99.90;;;;;;5067204;28;20063;-73
2022/11/22 02:27:54;;;;;;;2.95;1.30;;;12.70;99.90;;;;;;5039519;28;20681;-72
2022/11/22 02:30:22;;;;;;;2.33;1.20;;;12.80;99.90;;;;;;5051013;28;20074;-73
2022/11/22 02:32:49;;;;;;;2.45;1.20;;;12.70;99.90;;;;;;5066748;28;20620;-73
2022/11/22 02:35:26;;;;;;;3.33;1.15;;;12.80;99.90;;;;;;5052951;28;20036;-73
2022/11/22 02:38:13;;;;;;;3.15;1.30;;;12.80;99.90;;;;;;5066821;28;20074;-72
2022/11/22 02:40:58;;;;;;;;;;;12.80;99.90;;;;;;5088010;28;20040;-72
2022/11/22 02:43:30;;;;;;;3.53;1.63;;;12.80;99.90;;;;;;5056211;28;19924;-72
2022/11/22 02:46:09;;;;;;;4.68;1.77;;;12.80;99.90;;;;;;5082800;28;20505;-72
2022/11/22 02:48:40;;;;;;;3.97;1.95;;;12.80;99.90;;;;;;5063976;28;20060;-72
2022/11/22 02:51:09;;;;;;;4.40;2.05;;;12.90;99.90;;;;;;5068926;28;20123;-72
2022/11/22 02:53:36;;;;;;;3.75;1.77;;;12.90;99.90;;;;;;5047770;28;20177;-73
2022/11/22 02:56:04;;;;;;;2.63;1.48;;;13.00;99.90;;;;;;5039661;28;20037;-72
2022/11/22 02:58:32;;;;;;;8.00;2.53;;;13.00;99.90;;;;;;5086648;28;20673;-73
2022/11/22 03:00:59;;;;;;;3.38;1.40;;;13.00;99.90;;;;;;5064207;28;20043;-73
2022/11/22 03:03:27;;;;;;;4.07;1.67;;;13.10;99.90;;;;;;5085376;28;20131;-73
2022/11/22 03:05:54;;;;;;;2.83;1.27;;;13.20;99.90;;;;;;5046340;28;20032;-73
2022/11/22 03:08:22;;;;;;;3.65;1.75;;;13.20;99.90;;;;;;5045392;28;20060;-72
2022/11/22 03:10:49;;;;;;;3.80;1.48;;;13.30;99.90;;;;;;5031723;28;20097;-73
2022/11/22 03:13:16;;;;;;;5.15;1.63;;;13.40;99.90;;;;;;5034859;28;20056;-72
2022/11/22 03:15:47;;;;;;;3.95;1.83;;;13.50;99.90;;;;;;5058868;28;20860;-74
2022/11/22 03:18:14;;;;;;;6.53;2.15;;;13.60;99.90;;;;;;5082407;28;20063;-73
2022/11/22 03:20:42;;;;;;;3.05;1.48;;;13.70;99.90;;;;;;5054266;28;20040;-73
2022/11/22 03:23:09;;;;;;;8.65;1.90;;;13.80;99.90;;;;;;5083565;28;20044;-73
2022/11/22 03:25:38;;;;;;;10.30;1.70;;;13.90;99.90;;;;;;5048965;28;20050;-71
2022/11/22 03:28:06;;;;;;;5.50;1.92;;;14.00;99.90;;;;;;5036418;28;20520;-73
2022/11/22 03:30:38;;;;;;;6.25;2.55;;;14.00;99.90;;;;;;5053539;28;20400;-72
2022/11/22 03:33:05;;;;;;;3.08;1.70;;;14.10;99.90;;;;;;5057627;28;20059;-71
2022/11/22 03:35:32;;;;;;;3.55;1.58;;;14.10;99.90;;;;;;5045037;28;20642;-72
2022/11/22 03:38:00;;;;;;;7.13;2.38;;;14.20;99.90;;;;;;5053675;28;20094;-72
2022/11/22 03:40:28;;;;;;;5.40;2.63;;;14.10;99.90;;;;;;5071696;28;20057;-72
2022/11/22 03:42:59;;;;;;;4.75;1.80;;;14.10;99.90;;;;;;5037594;28;20076;-71
2022/11/22 03:45:30;;;;;;;8.38;3.17;;;14.10;99.90;;;;;;5048203;28;20063;-72
2022/11/22 03:47:57;;;;;;;5.38;1.70;;;14.10;99.90;;;;;;5053677;28;20056;-72
2022/11/22 03:50:25;;;;;;;7.63;2.10;;;14.20;99.90;;;;;;5054064;28;20143;-71
2022/11/22 03:52:52;;;;;;;3.50;1.63;;;14.20;99.90;;;;;;5053445;28;20548;-72
2022/11/22 03:55:20;;;;;;;9.20;2.53;;;14.20;99.90;;;;;;5043291;28;20126;-71
2022/11/22 03:57:47;;;;;;;6.95;2.50;;;14.30;99.90;;;;;;5070112;28;20777;-72
2022/11/22 04:00:15;;;;;;;6.40;1.85;;;14.30;99.90;;;;;;5086316;28;20444;-71
2022/11/22 04:02:43;;;;;;;6.38;1.85;;;14.30;99.90;;;;;;5075566;28;20102;-71
2022/11/22 04:05:10;;;;;;;4.60;1.80;;;14.30;99.90;;;;;;5044581;28;20044;-71
2022/11/22 04:07:37;;;;;;;10.90;2.95;;;14.30;99.90;;;;;;5073303;28;20367;-71
2022/11/22 04:10:05;;;;;;;2.83;1.85;;;14.40;99.90;;;;;;5072270;28;20078;-71
2022/11/22 04:12:33;;;;;;;3.42;1.45;;;14.40;99.90;;;;;;5072543;28;20340;-72
2022/11/22 04:15:07;;;;;;;3.78;2.40;;;14.50;99.90;;;;;;5053344;28;20150;-71
2022/11/22 04:17:40;;;;;;;7.95;2.50;;;14.50;99.90;;;;;;5053302;28;20785;-72
2022/11/22 04:23:20;;;;;;;4.97;2.55;;;14.60;99.90;;;;;;5053311;28;20036;-71
2022/11/22 04:25:54;;;;;;;6.60;2.15;;;14.60;99.90;;;;;;5065286;28;20105;-73
2022/11/22 04:28:24;;;;;;;4.85;2.25;;;14.60;99.90;;;;;;5064769;28;20197;-72
2022/11/22 04:33:57;;;;;;;6.20;2.35;;;14.70;99.90;;;;;;5070836;28;20455;-71
2022/11/22 04:36:25;;;;;;;8.13;2.20;;;14.70;99.90;;;;;;5071798;28;20076;-71
2022/11/22 04:38:52;;;;;;;7.68;2.05;;;14.60;99.90;;;;;;5070992;28;20063;-71
2022/11/22 04:41:19;;;;;;;6.80;2.35;;;14.60;99.90;;;;;;5073175;28;20106;-71
2022/11/22 04:46:33;;;;;;;7.18;2.08;;;14.60;99.90;;;;;;5090440;28;20079;-72
2022/11/22 04:49:00;;;;;;;6.43;1.67;;;14.70;99.90;;;;;;5063262;28;20051;-73
2022/11/22 04:54:13;;;;;;;6.35;2.67;;;14.80;99.90;;;;;;5052775;28;20163;-71
2022/11/22 04:56:42;;;;;;;4.20;2.95;;;14.90;99.90;;;;;;5071992;28;20055;-72
2022/11/22 04:59:10;;;;;;;4.63;2.22;;;14.90;99.90;;;;;;5072349;28;20052;-71
2022/11/22 05:01:38;;;;;;;7.50;2.60;;;14.90;99.90;;;;;;5055810;28;20111;-72
2022/11/22 05:04:05;;;;;;;4.30;1.85;;;15.00;99.90;;;;;;5055588;28;20048;-71
2022/11/22 05:06:33;;;;;;;5.00;2.45;;;14.90;99.90;;;;;;5074377;28;20047;-72
2022/11/22 05:09:00;;;;;;;4.47;1.98;;;15.00;99.90;;;;;;5072656;28;20398;-72
2022/11/22 05:11:28;;;;;;;9.07;2.80;;;14.90;99.90;;;;;;5090881;28;20151;-73
2022/11/22 05:13:55;;;;;;;8.77;2.20;;;14.90;99.90;;;;;;5066440;28;20037;-72
2022/11/22 05:16:22;;;;;;;4.95;2.40;;;14.90;99.90;;;;;;5035181;28;20052;-72
2022/11/22 05:18:59;;;;;;;11.27;3.03;;;14.90;99.90;;;;;;5051412;28;20041;-72
2022/11/22 05:21:28;;;;;;;5.85;2.50;;;14.90;99.90;;;;;;5052017;28;20506;-71
2022/11/22 05:23:55;;;;;;;4.57;2.05;;;14.90;99.90;;;;;;5052164;28;20052;-71
2022/11/22 05:26:28;;;;;;;5.18;1.80;;;14.90;99.90;;;;;;5069187;28;20436;-72
2022/11/22 05:28:57;;;;;;;6.30;2.95;;;14.90;99.90;;;;;;5055197;28;20051;-71
2022/11/22 05:31:26;;;;;;;5.25;1.92;;;14.90;99.90;;;;;;5055246;28;20058;-71
2022/11/22 05:33:56;;;;;;;7.90;2.75;;;15.00;99.90;;;;;;5055632;28;20500;-71
2022/11/22 05:36:24;;;;;;;6.00;2.20;;;15.10;99.90;;;;;;5072157;28;20101;-71
2022/11/22 05:38:52;;;;;;;8.32;2.72;;;15.20;99.90;;;;;;5055581;28;20048;-72
2022/11/22 05:41:19;;;;;;;7.20;2.30;;;15.20;99.90;;;;;;5039009;28;20060;-72
2022/11/22 05:43:47;;;;;;;9.52;3.05;;;15.20;99.90;;;;;;5065656;28;20059;-72
2022/11/22 05:46:17;;;;;;;6.53;2.95;;;15.30;99.90;;;;;;5061600;28;20055;-71
2022/11/22 05:48:48;;;;;;;6.90;3.03;;;15.30;99.90;;;;;;5039828;28;20391;-72
2022/11/22 05:51:19;;;;;;;6.95;3.95;;;15.30;99.90;;;;;;5057341;28;20044;-71
2022/11/22 05:53:47;;;;;;;12.25;4.38;;;15.30;99.90;;;;;;5031000;28;20590;-72
2022/11/22 05:56:17;;;;;;;9.80;3.15;;;15.30;99.90;;;;;;5063603;28;20036;-71
2022/11/22 05:58:45;;;;;;;9.32;4.57;;;15.50;99.90;;;;;;5067620;28;20040;-72
2022/11/22 06:01:18;;;;;;;7.20;2.75;;;15.50;99.90;;;;;;5050666;28;20522;-71
2022/11/22 06:03:47;;;;;;;5.70;2.75;;;15.60;99.90;;;;;;5068011;28;20375;-71
2022/11/22 06:06:15;;;;;;;9.38;2.83;;;15.60;99.90;;;;;;5051068;28;20130;-72
2022/11/22 06:08:46;;;;;;;8.43;2.38;;;15.70;99.90;;;;;;5050443;28;20587;-72
2022/11/22 06:11:20;;;;;;;7.07;2.47;;;15.80;99.90;;;;;;5050662;28;20387;-71
2022/11/22 06:13:53;;;;;;;16.63;3.50;;;15.80;99.90;;;;;;5066910;28;20075;-73
2022/11/22 06:16:21;;;;;;;8.10;2.75;;;15.90;99.90;;;;;;5051884;28;20472;-71
2022/11/22 06:18:49;;;;;;;6.05;2.30;;;15.90;99.90;;;;;;5048193;28;20048;-71
2022/11/22 06:21:22;;;;;;;14.40;3.47;;;16.10;99.90;;;;;;5016012;28;20378;-72
2022/11/22 06:23:51;;;;;;;6.82;3.42;;;16.10;99.90;;;;;;5047734;28;20183;-71
2022/11/22 06:26:20;;;;;;;5.20;2.58;;;16.00;99.90;;;;;;5047372;28;20048;-71
2022/11/22 06:28:48;;;;;;;7.40;2.45;;;16.00;99.90;;;;;;5051028;28;20063;-72
2022/11/22 06:31:18;;;;;;;6.53;2.90;;;16.00;99.90;;;;;;5067763;28;20082;-71
2022/11/22 06:33:46;;;;;;;12.10;2.80;;;15.90;99.90;;;;;;5067284;28;20068;-71
2022/11/22 06:36:16;;;;;;;6.18;2.00;;;15.70;99.90;;;;;;5068097;28;20056;-71
2022/11/22 06:38:44;;;;;;;4.97;1.98;;;15.70;99.90;;;;;;5066957;28;20047;-72
2022/11/22 06:41:23;;;;;;;7.28;2.92;;;15.60;99.90;;;;;;5067172;28;20044;-71
2022/11/22 06:43:53;;;;;;;7.90;2.85;;;15.60;99.90;;;;;;5060433;28;20124;-71
2022/11/22 06:46:22;;;;;;;7.78;2.63;;;15.60;99.90;;;;;;5037584;28;20100;-72
2022/11/22 06:48:50;;;;;;;5.10;2.22;;;15.50;99.90;;;;;;5049333;28;20437;-71
2022/11/22 06:51:23;;;;;;;5.38;2.72;;;15.50;99.90;;;;;;5030692;28;20068;-72
2022/11/22 06:53:54;;;;;;;9.30;2.20;;;15.50;99.90;;;;;;5046812;28;20049;-71
2022/11/22 06:56:23;;;;;;;5.45;2.08;;;15.50;99.90;;;;;;5029194;28;20059;-71
2022/11/22 06:58:52;;;;;;;9.18;2.80;;;15.50;99.90;;;;;;5063442;28;20174;-71
2022/11/22 07:01:28;;;;;;;6.95;2.75;;;15.40;99.90;;;;;;5037512;28;20463;-71
2022/11/22 07:03:57;;;;;;;9.20;3.45;;;15.40;99.90;;;;;;5046414;28;20380;-71
2022/11/22 07:06:27;;;;;;;8.13;2.47;;;15.30;99.90;;;;;;5063375;28;20052;-71
2022/11/22 07:08:55;;;;;;;11.07;4.10;;;15.30;99.90;;;;;;5054202;28;20101;-71
2022/11/22 07:11:26;;;;;;;7.47;3.00;;;15.20;99.90;;;;;;5017462;28;20412;-71
2022/11/22 07:13:55;;;;;;;6.80;2.55;;;15.20;99.90;;;;;;5034568;28;20037;-72
2022/11/22 07:16:25;;;;;;;6.28;2.83;;;15.20;99.90;;;;;;5047148;28;20428;-73
2022/11/22 07:18:53;;;;;;;20.35;3.63;;;15.20;99.90;;;;;;5052106;28;20053;-71
2022/11/22 07:21:22;;;;;;;10.63;4.80;;;15.20;99.90;;;;;;5050852;28;20045;-71
2022/11/22 07:23:52;;;;;;;7.03;2.53;;;15.20;99.90;;;;;;5055178;28;20045;-71
2022/11/22 07:26:22;;;;;;;8.43;2.50;;;15.30;99.90;;;;;;5053956;28;20058;-70
2022/11/22 07:28:50;;;;;;;8.40;2.55;;;15.30;99.90;;;;;;5070072;28;20549;-71
2022/11/22 07:31:18;;;;;;;16.35;4.45;;;15.40;99.90;;;;;;5069734;28;20094;-71
2022/11/22 07:33:46;;;;;;;11.52;3.65;;;15.50;99.90;;;;;;5070231;28;20455;-71
2022/11/22 07:36:19;;;;;;;20.48;3.80;;;15.50;99.90;;;;;;5067725;28;20053;-71
2022/11/22 07:38:48;;;;;;;8.82;3.78;;;15.60;99.90;;;;;;5067858;28;20047;-71
2022/11/22 07:41:17;;;;;;;11.73;3.20;;;15.60;99.90;;;;;;5049324;28;20056;-71
2022/11/22 07:43:45;;;;;;;6.25;2.95;;;15.70;99.90;;;;;;5067573;28;20346;-71
2022/11/22 07:46:25;;;;;;;7.28;2.65;;;15.80;99.90;;;;;;5071910;28;20076;-73
2022/11/22 07:48:52;;;;;;;13.27;3.42;;;15.80;99.90;;;;;;5070295;28;20044;-72
2022/11/22 07:51:20;;;;;;;5.60;2.45;;;15.90;99.90;;;;;;5083288;28;20051;-72
2022/11/22 07:53:47;;;;;;;4.72;2.47;;;15.90;99.90;;;;;;5051841;28;20383;-71
2022/11/22 07:56:15;;;;;;;6.55;2.90;;;16.00;99.90;;;;;;5067834;28;20155;-71
2022/11/22 07:58:43;;;;;;;7.93;3.08;;;16.20;99.90;;;;;;5062375;28;20097;-71
2022/11/22 08:01:14;;;;;;;22.45;5.50;;;16.50;99.90;;;;;;5061165;28;20056;-72
2022/11/22 08:03:42;;;;;;;12.82;2.78;;;16.80;99.90;;;;;;5034292;28;20088;-71
2022/11/22 08:06:11;;;;;;;6.57;2.25;;;16.80;99.90;;;;;;5048107;28;20206;-71
2022/11/22 08:08:39;;;;;;;6.40;2.28;;;16.80;99.90;;;;;;5058975;28;20125;-71
2022/11/22 08:11:07;;;;;;;11.88;3.05;;;16.90;99.90;;;;;;5059649;28;20036;-72
2022/11/22 08:13:35;;;;;;;5.63;3.17;;;16.80;99.90;;;;;;5056384;28;20029;-71
2022/11/22 08:16:07;;;;;;;9.65;3.10;;;16.90;99.90;;;;;;5046665;28;20057;-72
2022/11/22 08:18:36;;;;;;;12.98;4.00;;;16.90;99.90;;;;;;5056450;28;20203;-72
2022/11/22 08:21:10;;;;;;;6.95;4.05;;;17.00;99.90;;;;;;5064156;28;20127;-71
2022/11/22 08:23:38;;;;;;;8.90;2.38;;;17.30;99.90;;;;;;5052615;28;20127;-73
2022/11/22 08:26:08;;;;;;;10.00;3.25;;;17.50;99.90;;;;;;5060198;28;20048;-73
2022/11/22 08:28:35;;;;;;;11.68;3.25;;;17.60;99.90;;;;;;5068914;28;20048;-72
2022/11/22 08:31:07;;;;;;;9.48;2.67;;;17.60;99.90;;;;;;5063055;28;20045;-73
2022/11/22 08:33:35;;;;;;;10.10;3.25;;;17.50;99.90;;;;;;5077583;28;20210;-72
2022/11/22 08:36:04;;;;;;;7.30;3.35;;;17.50;99.90;;;;;;5065975;28;20419;-71
2022/11/22 08:38:31;;;;;;;7.15;2.50;;;17.50;99.90;;;;;;5066486;28;20374;-71
2022/11/22 08:40:59;;;;;;;7.07;2.75;;;17.40;99.90;;;;;;5050983;28;20044;-73
2022/11/22 08:43:26;;;;;;;14.23;4.15;;;17.50;99.90;;;;;;5044698;28;20044;-71
2022/11/22 08:45:56;;;;;;;7.07;3.38;;;17.70;99.90;;;;;;5046361;28;20137;-71
2022/11/22 08:48:25;;;;;;;15.82;4.25;;;17.80;99.90;;;;;;5051812;28;20040;-72
2022/11/22 08:50:57;;;;;;;8.35;2.65;;;17.80;99.90;;;;;;5052106;28;20059;-71
2022/11/22 08:53:25;;;;;;;6.95;2.95;;;17.80;99.90;;;;;;5081892;28;20040;-71
2022/11/22 08:55:54;;;;;;;6.28;2.90;;;17.80;99.90;;;;;;5081533;28;20051;-71
2022/11/22 08:58:22;;;;;;;8.55;3.08;;;17.80;99.90;;;;;;5051772;28;20047;-72
2022/11/22 09:00:49;;;;;;;6.07;1.98;;;17.80;99.90;;;;;;5049524;28;20052;-72
2022/11/22 09:03:17;;;;;;;8.38;2.33;;;17.70;99.90;;;;;;5052321;28;20115;-72
2022/11/22 09:05:44;;;;;;;6.90;2.42;;;17.60;99.90;;;;;;5067145;28;20037;-71
2022/11/22 09:08:33;;;;;;;13.07;3.72;;;17.50;99.90;;;;;;5064858;28;20035;-72
2022/11/22 09:11:08;;;;;;;9.52;2.28;;;17.40;99.90;;;;;;5061155;28;20469;-73
2022/11/22 09:13:36;;;;;;;11.45;3.38;;;17.40;99.90;;;;;;5059905;28;20522;-72
2022/11/22 09:16:05;;;;;;;6.88;2.78;;;17.40;99.90;;;;;;5060011;28;20082;-71
2022/11/22 09:18:32;;;;;;;6.43;2.80;;;17.40;99.90;;;;;;5070073;28;20052;-71
2022/11/22 09:21:03;;;;;;;10.82;4.20;;;17.40;99.90;;;;;;5071329;28;21383;-72
2022/11/22 09:23:31;;;;;;;24.13;3.78;;;17.40;99.90;;;;;;5085784;28;20486;-71
2022/11/22 09:26:01;;;;;;;10.55;4.60;;;17.40;99.90;;;;;;5072087;28;20040;-71
2022/11/22 09:28:29;;;;;;;7.78;2.63;;;17.50;99.90;;;;;;5085190;28;20032;-71
2022/11/22 09:31:11;;;;;;;9.90;2.85;;;17.50;99.90;;;;;;5059141;28;20047;-72
2022/11/22 09:33:39;;;;;;;9.30;3.03;;;17.60;99.90;;;;;;5067820;28;20059;-72
2022/11/22 09:36:09;;;;;;;10.77;4.22;;;17.70;99.90;;;;;;5052868;28;20059;-73
2022/11/22 09:38:37;;;;;;;8.57;3.70;;;17.80;99.90;;;;;;5051122;28;20102;-72
2022/11/22 09:41:35;;;;;;;9.50;3.72;;;17.90;99.90;;;;;;5061272;28;20375;-73
2022/11/22 09:44:12;;;;;;;16.75;5.18;;;18.00;99.90;;;;;;5065233;28;20815;-73
2022/11/22 09:46:53;;;;;;;;;;;18.00;99.90;;;;;;5066467;28;20076;-72
2022/11/22 09:49:42;;;;;;;11.63;3.35;;;17.90;99.90;;;;;;5066229;28;19986;-72
2022/11/22 09:52:26;;;;;;;15.13;4.38;;;17.90;99.90;;;;;;5051454;28;20098;-73
2022/11/22 09:54:58;;;;;;;9.98;4.28;;;17.80;99.90;;;;;;5066678;28;20855;-71
2022/11/22 09:57:35;;;;;;;14.30;5.70;;;17.80;99.90;;;;;;5021984;28;20155;-73
2022/11/22 10:00:14;;;;;;;16.30;4.72;;;17.70;99.90;;;;;;5042970;28;20548;-73
2022/11/22 10:02:48;;;;;;;20.73;3.88;;;17.70;99.90;;;;;;5059276;28;20040;-72
2022/11/22 10:05:32;;;;;;;15.75;5.15;;;17.60;99.90;;;;;;5049181;28;20136;-72
2022/11/22 10:08:36;;;;;;;13.10;5.53;;;17.50;99.90;;;;;;5067055;28;20366;-71
2022/11/22 10:11:18;;;;;;;13.80;5.00;;;17.20;99.90;;;;;;5062865;28;20036;-73
2022/11/22 10:14:00;;;;;;;12.05;3.97;;;16.90;99.90;;;;;;5059213;28;20378;-72
2022/11/22 10:17:07;;;;;;;10.45;4.20;;;16.70;99.90;;;;;;5030381;28;21775;-73
2022/11/22 10:19:40;;;;;;;15.77;5.53;;;16.70;99.90;;;;;;5028257;28;20044;-73
2022/11/22 10:22:12;;;;;;;18.00;4.00;;;16.70;99.90;;;;;;5042556;28;20792;-74
2022/11/22 10:24:42;;;;;;;7.78;3.45;;;16.80;99.90;;;;;;5080542;28;20512;-72
2022/11/22 10:27:14;;;;;;;13.20;4.68;;;17.00;99.90;;;;;;5055643;28;20102;-71
2022/11/22 10:29:54;;;;;;;15.55;6.78;;;17.10;99.90;;;;;;5070676;28;20067;-72
2022/11/22 10:32:38;;;;;;;16.55;4.63;;;17.10;99.90;;;;;;5077485;28;20035;-72
2022/11/22 10:35:21;;;;;;;14.18;5.63;;;17.10;99.90;;;;;;5043673;28;20064;-72
2022/11/22 10:37:59;;;;;;;16.45;5.75;;;17.10;99.90;;;;;;5056297;28;20052;-73
2022/11/22 10:40:42;;;;;;;9.57;3.75;;;17.10;99.90;;;;;;5060461;28;20910;-73
2022/11/22 10:43:45;;;;;;;13.57;4.65;;;17.20;99.90;;;;;;5065109;28;20125;-73
2022/11/22 10:46:21;;;;;;;14.88;3.70;;;17.20;99.90;;;;;;5048137;28;20144;-72
2022/11/22 10:49:13;;;;;;;10.13;4.03;;;17.20;99.90;;;;;;5065091;28;20049;-73
2022/11/22 10:52:05;;;;;;;13.63;3.38;;;17.30;99.90;;;;;;5062550;28;20076;-73
2022/11/22 10:54:56;;;;;;;10.07;4.10;;;17.40;99.90;;;;;;5061147;28;20037;-72
2022/11/22 10:57:48;;;;;;;11.98;4.43;;;17.50;99.90;;;;;;5063713;28;20036;-73
2022/11/22 11:00:23;;;;;;;11.82;3.38;;;17.60;99.90;;;;;;5068183;28;20147;-72
2022/11/22 11:03:02;;;;;;;11.02;4.55;;;17.60;99.90;;;;;;5069731;28;20086;-73
2022/11/22 11:05:49;;;;;;;8.07;3.65;;;17.60;99.90;;;;;;5085953;28;20052;-72
2022/11/22 11:08:44;;;;;;;11.98;3.75;;;17.60;99.90;;;;;;5072211;28;20048;-72
2022/11/22 11:11:33;;;;;;;11.05;5.15;;;17.50;99.90;;;;;;5086857;28;20046;-71
2022/11/22 11:14:21;;;;;;;8.60;3.72;;;17.50;99.90;;;;;;5070025;28;20066;-72
2022/11/22 11:16:48;;;;;;;11.48;4.45;;;17.50;99.90;;;;;;5059911;28;20049;-72
2022/11/22 11:19:18;;;;;;;14.80;5.57;;;17.60;99.90;;;;;;5083223;28;20055;-72
2022/11/22 11:22:05;;;;;;;10.85;4.55;;;17.60;99.90;;;;;;5069371;28;20040;-71
2022/11/22 11:24:38;;;;;;;12.70;4.07;;;17.70;99.90;;;;;;5060404;28;20071;-72
2022/11/22 11:27:08;;;;;;;8.27;3.15;;;17.80;99.90;;;;;;5061077;28;20041;-72
2022/11/22 11:29:46;;;;;;;8.02;3.72;;;17.80;99.90;;;;;;5054211;28;20072;-71
2022/11/22 11:32:16;;;;;;;19.05;4.38;;;17.80;99.90;;;;;;5064752;28;20066;-71
2022/11/22 11:35:06;;;;;;;12.15;4.65;;;17.80;99.90;;;;;;5049959;28;20059;-71
2022/11/22 11:37:37;;;;;;;14.02;4.00;;;17.90;99.90;;;;;;5042745;28;20141;-72
2022/11/22 11:40:31;;;;;;;10.95;3.55;;;18.10;99.90;;;;;;5066788;28;20040;-71
2022/11/22 11:43:20;;;;;;;15.38;3.97;;;18.10;99.90;;;;;;5071701;28;20040;-71
2022/11/22 11:45:48;;;;;;;12.52;4.05;;;18.30;99.90;;;;;;5048388;28;20056;-73
2022/11/22 11:48:42;;;;;;;11.07;4.63;;;18.60;99.90;;;;;;5092100;28;20035;-72
2022/11/22 11:51:09;;;;;;;17.92;4.68;;;18.70;99.90;;;;;;5055809;28;20051;-72
2022/11/22 11:53:38;;;;;;;8.43;3.40;;;18.80;99.90;;;;;;5050932;28;20566;-72
2022/11/22 11:56:25;;;;;;;14.02;4.32;;;18.60;99.90;;;;;;5075111;28;20410;-72
2022/11/22 11:58:54;;;;;;;14.30;4.85;;;18.40;99.90;;;;;;5061798;28;20452;-72
2022/11/22 12:01:23;;;;;;;20.83;6.00;;;18.30;99.90;;;;;;5081213;28;20146;-71
2022/11/22 12:04:17;;;;;;;22.42;4.70;;;18.20;99.90;;;;;;5065673;28;20040;-72
2022/11/22 12:07:12;;;;;;;17.05;4.45;;;18.20;99.90;;;;;;5070254;28;20048;-75
2022/11/22 12:09:46;;;;;;;20.38;4.40;;;18.20;99.90;;;;;;5055174;28;20062;-73
2022/11/22 12:12:44;;;;;;;18.52;6.57;;;18.20;99.90;;;;;;5050555;28;20044;-72
2022/11/22 12:15:33;;;;;;;13.75;5.55;;;18.20;99.90;;;;;;5070153;28;20055;-72
2022/11/22 12:18:06;;;;;;;12.80;3.72;;;18.10;99.90;;;;;;5052609;28;20510;-72
2022/11/22 12:20:43;;;;;;;8.13;5.03;;;18.00;99.90;;;;;;5067328;28;20135;-73
2022/11/22 12:23:31;;;;;;;10.98;3.75;;;18.00;99.90;;;;;;5065012;28;20068;-73
2022/11/22 12:25:59;;;;;;;19.55;4.28;;;17.90;99.90;;;;;;5037512;28;20508;-74
2022/11/22 12:28:28;;;;;;;11.43;3.75;;;17.90;99.90;;;;;;5069566;28;20119;-74
2022/11/22 12:31:01;;;;;;;17.50;4.60;;;17.90;99.90;;;;;;5071019;28;20047;-71
2022/11/22 12:33:52;;;;;;;18.52;5.55;;;18.00;99.90;;;;;;5048971;28;20064;-71
2022/11/22 12:36:42;;;;;;;22.05;6.50;;;18.00;99.90;;;;;;5068796;28;20618;-70
2022/11/22 12:39:23;;;;;;;12.10;4.85;;;18.10;99.90;;;;;;5059634;28;20533;-70
2022/11/22 12:42:20;;;;;;;14.35;6.60;;;18.20;99.90;;;;;;5074113;28;20506;-71
2022/11/22 12:44:59;;;;;;;22.88;4.35;;;18.20;99.90;;;;;;5065960;28;20156;-71
2022/11/22 12:47:34;;;;;;;12.40;4.65;;;18.10;99.90;;;;;;5093874;28;20147;-71
2022/11/22 12:50:23;;;;;;;23.23;6.47;;;18.00;99.90;;;;;;5053057;28;20143;-71
2022/11/22 12:52:57;;;;;;;22.50;6.00;;;17.90;99.90;;;;;;5059787;28;20150;-70
2022/11/22 12:55:28;;;;;;;24.25;6.18;;;17.80;99.90;;;;;;5056545;28;20485;-71
2022/11/22 12:58:11;;;;;;;18.15;5.63;;;17.90;99.90;;;;;;5051357;28;20048;-73
2022/11/22 13:00:53;;;;;;;22.00;6.75;;;17.90;99.90;;;;;;5063096;28;20076;-74
2022/11/22 13:03:31;;;;;;;15.45;4.85;;;17.80;99.90;;;;;;5042719;28;20074;-73
2022/11/22 13:06:02;;;;;;;19.48;6.07;;;17.90;99.90;;;;;;5069135;28;20118;-70
2022/11/22 13:08:55;;;;;;;14.25;5.25;;;17.80;99.90;;;;;;5051652;28;20101;-70
2022/11/22 13:11:30;;;;;;;13.98;5.18;;;17.80;99.90;;;;;;5060852;28;20059;-71
2022/11/22 13:14:14;;;;;;;21.80;7.68;;;17.80;99.90;;;;;;5065698;28;20036;-72
2022/11/22 13:16:45;;;;;;;14.07;7.22;;;17.80;99.90;;;;;;5079146;28;20048;-73
2022/11/22 13:19:16;;;;;;;18.48;7.03;;;17.90;99.90;;;;;;5047442;28;20051;-74
2022/11/22 13:22:15;;;;;;;16.85;5.22;;;17.90;99.90;;;;;;5072818;28;20127;-74